Time;durP1;ratioP1;P1;durP2;ratioP2;P2;SDS_P1;SDS_P2;PMS_P1;PMS_P2;Temp;Humidity;BMP_temperature;BMP_pressure;BME280_temperature;BME280_humidity;BME280_pressure;Samples;Min_cycle;Max_cycle;Signal;HPM_P1;HPM_P2
2023/12/30 00:00:11;;;;;;;12.80;2.10;;;5.80;99.90;;;;;;4895727;29;20036;-77
2023/12/30 00:02:37;;;;;;;12.73;2.63;;;5.80;99.90;;;;;;4900094;29;20043;-77
2023/12/30 00:05:03;;;;;;;12.00;2.40;;;5.80;99.90;;;;;;4895409;29;20040;-77
2023/12/30 00:07:29;;;;;;;9.85;2.33;;;5.80;99.90;;;;;;4881626;29;20064;-77
2023/12/30 00:09:54;;;;;;;12.60;2.58;;;5.80;99.90;;;;;;4881540;29;20040;-77
2023/12/30 00:12:20;;;;;;;9.80;2.28;;;5.80;99.90;;;;;;4881684;29;20048;-77
2023/12/30 00:14:45;;;;;;;10.60;2.78;;;5.80;99.90;;;;;;4889763;29;20045;-77
2023/12/30 00:17:11;;;;;;;11.57;2.72;;;5.80;99.90;;;;;;4886907;29;20556;-77
2023/12/30 00:19:42;;;;;;;11.15;2.30;;;5.70;99.90;;;;;;4881012;29;20048;-77
2023/12/30 00:22:08;;;;;;;9.30;2.30;;;5.80;99.90;;;;;;4881461;29;20404;-77
2023/12/30 00:24:35;;;;;;;9.82;2.67;;;5.70;99.90;;;;;;4886814;29;20036;-77
2023/12/30 00:27:00;;;;;;;8.63;2.30;;;5.70;99.90;;;;;;4884422;29;20380;-77
2023/12/30 00:29:26;;;;;;;8.05;2.38;;;5.80;99.90;;;;;;4898644;29;20188;-77
2023/12/30 00:31:52;;;;;;;10.77;2.55;;;5.70;99.90;;;;;;4891513;29;20044;-77
2023/12/30 00:34:17;;;;;;;11.35;2.80;;;5.70;99.90;;;;;;4873975;29;20084;-77
2023/12/30 00:36:46;;;;;;;11.18;2.33;;;5.70;99.90;;;;;;4887200;29;20478;-77
2023/12/30 00:39:11;;;;;;;9.45;2.33;;;5.70;99.90;;;;;;4893692;29;20039;-77
2023/12/30 00:41:37;;;;;;;10.73;3.00;;;5.70;99.90;;;;;;4899480;29;20044;-77
2023/12/30 00:44:03;;;;;;;10.23;2.95;;;5.70;99.90;;;;;;4897841;29;20051;-77
2023/12/30 00:46:28;;;;;;;9.30;2.25;;;5.70;99.90;;;;;;4896023;29;20511;-77
2023/12/30 00:48:54;;;;;;;10.38;2.30;;;5.70;99.90;;;;;;4899274;29;20095;-77
2023/12/30 00:51:20;;;;;;;11.00;2.50;;;5.70;99.90;;;;;;4899300;29;20088;-77
2023/12/30 00:53:45;;;;;;;14.52;2.30;;;5.70;99.90;;;;;;4898739;29;20541;-77
2023/12/30 00:56:11;;;;;;;10.75;2.45;;;5.70;99.90;;;;;;4899387;29;20044;-77
2023/12/30 00:58:37;;;;;;;11.27;2.50;;;5.60;99.90;;;;;;4895286;29;20055;-77
2023/12/30 01:01:02;;;;;;;9.55;2.38;;;5.60;99.90;;;;;;4876751;29;20036;-77
2023/12/30 01:03:28;;;;;;;10.85;2.63;;;5.60;99.90;;;;;;4883299;29;20045;-77
2023/12/30 01:05:53;;;;;;;8.35;2.03;;;5.60;99.90;;;;;;4895205;29;20385;-77
2023/12/30 01:08:19;;;;;;;10.60;2.30;;;5.60;99.90;;;;;;4894970;29;20131;-77
2023/12/30 01:10:45;;;;;;;10.75;2.13;;;5.60;99.90;;;;;;4899006;29;20055;-77
2023/12/30 01:13:10;;;;;;;9.82;2.30;;;5.60;99.90;;;;;;4880146;29;20046;-77
2023/12/30 01:15:36;;;;;;;11.73;1.92;;;5.50;99.90;;;;;;4896965;29;20040;-77
2023/12/30 01:18:03;;;;;;;12.85;2.38;;;5.50;99.90;;;;;;4898836;29;20115;-77
2023/12/30 01:20:29;;;;;;;11.50;2.53;;;5.50;99.90;;;;;;4898775;29;20036;-77
2023/12/30 01:22:54;;;;;;;10.85;2.70;;;5.40;99.90;;;;;;4898738;29;20448;-77
2023/12/30 01:25:20;;;;;;;9.38;2.47;;;5.40;99.90;;;;;;4895126;29;20322;-77
2023/12/30 01:27:46;;;;;;;8.77;2.30;;;5.40;99.90;;;;;;4892237;29;20047;-77
2023/12/30 01:30:11;;;;;;;12.30;2.50;;;5.40;99.90;;;;;;4892663;29;20119;-77
2023/12/30 01:32:37;;;;;;;11.30;2.67;;;5.40;99.90;;;;;;4896878;29;20048;-77
2023/12/30 01:35:03;;;;;;;10.95;2.05;;;5.40;99.90;;;;;;4883677;29;20045;-77
2023/12/30 01:37:29;;;;;;;11.48;2.17;;;5.30;99.90;;;;;;4861346;29;20044;-77
2023/12/30 01:39:55;;;;;;;9.10;2.10;;;5.30;99.90;;;;;;4861399;29;20504;-77
2023/12/30 01:42:21;;;;;;;10.65;2.25;;;5.30;99.90;;;;;;4858506;29;20044;-77
2023/12/30 01:44:46;;;;;;;12.52;2.22;;;5.30;99.90;;;;;;4890529;29;20410;-77
2023/12/30 01:47:12;;;;;;;11.18;2.42;;;5.30;99.90;;;;;;4898669;29;20131;-77
2023/12/30 01:49:38;;;;;;;10.38;2.50;;;5.30;99.90;;;;;;4898338;29;20056;-77
2023/12/30 01:52:04;;;;;;;10.68;2.58;;;5.20;99.90;;;;;;4882966;29;20499;-77
2023/12/30 01:54:30;;;;;;;10.98;2.35;;;5.30;99.90;;;;;;4895621;29;20606;-77
2023/12/30 01:56:58;;;;;;;8.25;2.30;;;5.30;99.90;;;;;;4873118;29;20036;-77
2023/12/30 01:59:24;;;;;;;8.27;2.17;;;5.30;99.90;;;;;;4893883;29;20165;-77
2023/12/30 02:01:50;;;;;;;8.65;2.30;;;5.30;99.90;;;;;;4898508;29;20045;-77
2023/12/30 02:04:16;;;;;;;9.75;1.98;;;5.30;99.90;;;;;;4894700;29;20055;-77
2023/12/30 02:06:42;;;;;;;11.00;2.35;;;5.30;99.90;;;;;;4891987;29;20059;-77
2023/12/30 02:09:08;;;;;;;9.63;2.45;;;5.30;99.90;;;;;;4886093;29;20040;-77
2023/12/30 02:11:34;;;;;;;10.80;2.78;;;5.30;99.90;;;;;;4879745;29;20282;-77
2023/12/30 02:13:59;;;;;;;9.60;2.58;;;5.30;99.90;;;;;;4880992;29;20041;-77
2023/12/30 02:16:25;;;;;;;13.27;2.65;;;5.20;99.90;;;;;;4895805;29;20465;-77
2023/12/30 02:18:51;;;;;;;8.85;2.05;;;5.20;99.90;;;;;;4895538;29;20040;-77
2023/12/30 02:21:16;;;;;;;8.95;2.30;;;5.20;99.90;;;;;;4889337;29;20412;-77
2023/12/30 02:23:42;;;;;;;8.13;2.55;;;5.30;99.90;;;;;;4899058;29;20674;-77
2023/12/30 02:26:08;;;;;;;10.65;2.38;;;5.20;99.90;;;;;;4900263;29;20040;-77
2023/12/30 02:28:33;;;;;;;10.73;2.50;;;5.20;99.90;;;;;;4901722;29;20044;-77
2023/12/30 02:30:59;;;;;;;12.48;2.33;;;5.20;99.90;;;;;;4901834;29;20040;-77
2023/12/30 02:33:25;;;;;;;11.27;2.63;;;5.20;99.90;;;;;;4900865;29;20047;-77
2023/12/30 02:35:51;;;;;;;10.93;2.30;;;5.20;99.90;;;;;;4890034;29;20043;-77
2023/12/30 02:38:17;;;;;;;7.20;2.30;;;5.20;99.90;;;;;;4896402;29;20036;-77
2023/12/30 02:40:43;;;;;;;11.70;2.50;;;5.20;99.90;;;;;;4901674;29;20047;-77
2023/12/30 02:43:09;;;;;;;10.50;2.30;;;5.20;99.90;;;;;;4885744;29;20040;-77
2023/12/30 02:45:35;;;;;;;11.15;2.70;;;5.20;99.90;;;;;;4884265;29;20044;-77
2023/12/30 02:48:00;;;;;;;9.65;2.28;;;5.20;99.90;;;;;;4886037;29;20040;-77
2023/12/30 02:50:26;;;;;;;9.40;2.35;;;5.20;99.90;;;;;;4893787;29;20051;-77
2023/12/30 02:52:51;;;;;;;11.73;2.85;;;5.20;99.90;;;;;;4897860;29;20041;-77
2023/12/30 02:55:17;;;;;;;11.35;3.03;;;5.20;99.90;;;;;;4883194;29;20041;-77
2023/12/30 02:57:42;;;;;;;10.73;2.33;;;5.20;99.90;;;;;;4883265;29;20051;-77
2023/12/30 03:00:08;;;;;;;11.73;2.92;;;5.20;99.90;;;;;;4916790;29;20040;-77
2023/12/30 03:02:34;;;;;;;12.55;2.53;;;5.20;99.90;;;;;;4897444;29;20043;-77
2023/12/30 03:04:59;;;;;;;12.13;2.58;;;5.20;99.90;;;;;;4894010;29;20050;-77
2023/12/30 03:07:25;;;;;;;11.82;2.70;;;5.10;99.90;;;;;;4901331;29;20392;-77
2023/12/30 03:09:51;;;;;;;11.00;2.50;;;5.20;99.90;;;;;;4901095;29;20447;-77
2023/12/30 03:12:17;;;;;;;10.55;2.95;;;5.20;99.90;;;;;;4897429;29;20459;-77
2023/12/30 03:14:43;;;;;;;12.60;2.58;;;5.10;99.90;;;;;;4887000;29;20118;-77
2023/12/30 03:17:09;;;;;;;11.27;2.92;;;5.10;99.90;;;;;;4876028;29;20052;-77
2023/12/30 03:19:35;;;;;;;10.68;2.53;;;5.10;99.90;;;;;;4893020;29;20451;-77
2023/12/30 03:22:00;;;;;;;9.98;2.45;;;5.00;99.90;;;;;;4901133;29;20047;-77
2023/12/30 03:24:26;;;;;;;11.93;2.90;;;5.00;99.90;;;;;;4897515;29;20052;-77
2023/12/30 03:26:53;;;;;;;11.77;2.50;;;5.00;99.90;;;;;;4900583;29;20048;-77
2023/12/30 03:29:19;;;;;;;13.25;2.80;;;5.00;99.90;;;;;;4900484;29;20108;-77
2023/12/30 03:31:44;;;;;;;8.68;2.28;;;5.00;99.90;;;;;;4891736;29;20040;-77
2023/12/30 03:34:10;;;;;;;13.95;2.70;;;5.00;99.90;;;;;;4884390;29;20049;-77
2023/12/30 03:36:35;;;;;;;14.00;3.05;;;4.90;99.90;;;;;;4863386;29;20045;-77
2023/12/30 03:39:01;;;;;;;11.63;2.92;;;4.90;99.90;;;;;;4863511;29;20531;-77
2023/12/30 03:41:26;;;;;;;13.15;2.80;;;4.90;99.90;;;;;;4863472;29;20169;-77
2023/12/30 03:43:52;;;;;;;14.82;3.30;;;4.90;99.90;;;;;;4878890;29;20037;-77
2023/12/30 03:46:18;;;;;;;12.95;2.90;;;4.90;99.90;;;;;;4886823;29;20036;-77
2023/12/30 03:48:43;;;;;;;11.27;2.83;;;4.80;99.90;;;;;;4892548;29;20036;-77
2023/12/30 03:51:09;;;;;;;13.65;3.03;;;4.80;99.90;;;;;;4900794;29;20040;-77
2023/12/30 03:53:34;;;;;;;11.32;2.67;;;4.80;99.90;;;;;;4898799;29;20123;-77
2023/12/30 03:56:00;;;;;;;12.63;2.75;;;4.80;99.90;;;;;;4878728;29;20488;-77
2023/12/30 03:58:26;;;;;;;11.63;2.60;;;4.80;99.90;;;;;;4862810;29;20047;-77
2023/12/30 04:00:51;;;;;;;10.07;2.33;;;4.80;99.90;;;;;;4887229;29;20040;-77
2023/12/30 04:03:17;;;;;;;15.27;3.03;;;4.80;99.90;;;;;;4894859;29;20531;-77
2023/12/30 04:05:43;;;;;;;12.48;2.67;;;4.70;99.90;;;;;;4899587;29;20056;-77
2023/12/30 04:08:08;;;;;;;12.18;2.85;;;4.70;99.90;;;;;;4900229;29;20414;-77
2023/12/30 04:10:34;;;;;;;11.90;2.60;;;4.70;99.90;;;;;;4900119;29;20549;-77
2023/12/30 04:12:59;;;;;;;12.70;2.80;;;4.60;99.90;;;;;;4887167;29;20518;-77
2023/12/30 04:15:25;;;;;;;12.23;2.92;;;4.60;99.90;;;;;;4878354;29;20040;-77
2023/12/30 04:17:50;;;;;;;12.93;2.55;;;4.60;99.90;;;;;;4888881;29;20036;-77
2023/12/30 04:20:16;;;;;;;15.25;3.50;;;4.50;99.90;;;;;;4881135;29;20041;-76
2023/12/30 04:22:41;;;;;;;11.15;2.92;;;4.50;99.90;;;;;;4881177;29;20067;-77
2023/12/30 04:25:07;;;;;;;13.30;2.92;;;4.50;99.90;;;;;;4890751;29;20091;-77
2023/12/30 04:27:33;;;;;;;9.15;2.70;;;4.50;99.90;;;;;;4897995;29;20052;-77
2023/12/30 04:29:58;;;;;;;14.38;3.45;;;4.50;99.90;;;;;;4897831;29;20043;-77
2023/12/30 04:32:26;;;;;;;13.82;2.92;;;4.50;99.90;;;;;;4881239;29;20411;-77
2023/12/30 04:34:52;;;;;;;12.88;3.42;;;4.50;99.90;;;;;;4894368;29;20093;-77
2023/12/30 04:37:19;;;;;;;13.90;3.47;;;4.50;99.90;;;;;;4896544;29;20044;-77
2023/12/30 04:39:45;;;;;;;13.32;3.30;;;4.50;99.90;;;;;;4899475;29;20127;-77
2023/12/30 04:42:12;;;;;;;16.35;3.40;;;4.60;99.90;;;;;;4899421;29;20166;-76
2023/12/30 04:44:38;;;;;;;15.05;3.05;;;4.60;99.90;;;;;;4888603;29;20049;-77
2023/12/30 04:47:04;;;;;;;13.23;2.70;;;4.70;99.90;;;;;;4891823;29;20128;-77
2023/12/30 04:49:29;;;;;;;15.25;3.97;;;4.70;99.90;;;;;;4891683;29;20045;-77
2023/12/30 04:51:55;;;;;;;12.68;2.80;;;4.70;99.90;;;;;;4862040;29;20041;-77
2023/12/30 04:54:20;;;;;;;13.25;2.80;;;4.70;99.90;;;;;;4866153;29;20068;-77
2023/12/30 04:56:46;;;;;;;11.98;2.75;;;4.70;99.90;;;;;;4877720;29;20416;-77
2023/12/30 04:59:12;;;;;;;17.73;3.75;;;4.70;99.90;;;;;;4879822;29;20036;-77
2023/12/30 05:01:38;;;;;;;13.13;3.00;;;4.70;99.90;;;;;;4881842;29;20045;-76
2023/12/30 05:04:03;;;;;;;17.80;3.67;;;4.80;99.90;;;;;;4895365;29;20032;-77
2023/12/30 05:06:29;;;;;;;14.43;3.33;;;4.70;99.90;;;;;;4897151;29;20040;-76
2023/12/30 05:08:55;;;;;;;15.07;3.08;;;4.70;99.90;;;;;;4898932;29;20044;-77
2023/12/30 05:11:25;;;;;;;14.88;3.00;;;4.70;99.90;;;;;;4899216;29;20399;-77
2023/12/30 05:13:51;;;;;;;12.32;2.50;;;4.70;99.90;;;;;;4895008;29;20124;-77
2023/12/30 05:16:16;;;;;;;11.23;2.75;;;4.70;99.90;;;;;;4885598;29;20544;-77
2023/12/30 05:18:42;;;;;;;12.13;2.83;;;4.70;99.90;;;;;;4880419;29;20044;-77
2023/12/30 05:21:15;;;;;;;15.52;3.03;;;4.70;99.90;;;;;;4880413;29;20048;-76
2023/12/30 05:23:41;;;;;;;12.93;2.97;;;4.70;99.90;;;;;;4886371;29;20033;-77
2023/12/30 05:26:07;;;;;;;14.27;3.22;;;4.70;99.90;;;;;;4886390;29;20492;-77
2023/12/30 05:28:33;;;;;;;16.88;3.15;;;4.70;99.90;;;;;;4880292;29;20053;-77
2023/12/30 05:30:59;;;;;;;13.13;3.22;;;4.70;99.90;;;;;;4880015;29;20041;-77
2023/12/30 05:33:24;;;;;;;14.70;2.80;;;4.70;99.90;;;;;;4879947;29;20412;-77
2023/12/30 05:35:50;;;;;;;12.93;3.40;;;4.70;99.90;;;;;;4898633;29;20518;-77
2023/12/30 05:38:16;;;;;;;14.57;3.17;;;4.70;99.90;;;;;;4873859;29;20108;-77
2023/12/30 05:40:42;;;;;;;17.58;3.50;;;4.70;99.90;;;;;;4889728;29;20049;-77
2023/12/30 05:43:08;;;;;;;13.50;2.95;;;4.70;99.90;;;;;;4890068;29;20044;-77
2023/12/30 05:45:34;;;;;;;14.07;3.10;;;4.70;99.90;;;;;;4895504;29;20051;-77
2023/12/30 05:48:00;;;;;;;14.48;3.28;;;4.60;99.90;;;;;;4898614;29;20059;-77
2023/12/30 05:50:27;;;;;;;17.80;3.25;;;4.60;99.90;;;;;;4898471;29;20103;-77
2023/12/30 05:52:53;;;;;;;16.00;3.33;;;4.60;99.90;;;;;;4892218;29;20059;-77
2023/12/30 05:55:18;;;;;;;14.80;3.45;;;4.60;99.90;;;;;;4896380;29;20044;-76
2023/12/30 05:57:45;;;;;;;14.88;3.25;;;4.60;99.90;;;;;;4902489;29;20098;-77
2023/12/30 06:00:12;;;;;;;14.43;3.13;;;4.60;99.90;;;;;;4902447;29;20496;-77
2023/12/30 06:02:37;;;;;;;15.52;3.05;;;4.60;99.90;;;;;;4902482;29;20048;-77
2023/12/30 06:05:03;;;;;;;16.30;3.30;;;4.60;99.90;;;;;;4894867;29;20380;-77
2023/12/30 06:07:29;;;;;;;14.27;3.35;;;4.60;99.90;;;;;;4898596;29;20115;-76
2023/12/30 06:09:55;;;;;;;15.57;2.80;;;4.60;99.90;;;;;;4902146;29;20044;-77
2023/12/30 06:12:20;;;;;;;20.75;3.47;;;4.50;99.90;;;;;;4902330;29;20176;-77
2023/12/30 06:14:46;;;;;;;16.00;3.72;;;4.50;99.90;;;;;;4901490;29;20493;-77
2023/12/30 06:17:11;;;;;;;16.17;3.70;;;4.40;99.90;;;;;;4899168;29;20388;-77
2023/12/30 06:19:37;;;;;;;14.77;3.33;;;4.40;99.90;;;;;;4873539;29;20059;-76
2023/12/30 06:22:03;;;;;;;13.55;3.28;;;4.40;99.90;;;;;;4902278;29;20105;-77
2023/12/30 06:24:28;;;;;;;17.00;3.47;;;4.40;99.90;;;;;;4889366;29;20133;-77
2023/12/30 06:26:54;;;;;;;15.48;3.33;;;4.30;99.90;;;;;;4864806;29;20049;-77
2023/12/30 06:29:20;;;;;;;16.20;3.45;;;4.30;99.90;;;;;;4864499;29;20116;-76
2023/12/30 06:31:45;;;;;;;14.85;3.00;;;4.30;99.90;;;;;;4865802;29;20041;-77
2023/12/30 06:34:11;;;;;;;14.48;3.25;;;4.30;99.90;;;;;;4895277;29;20048;-77
2023/12/30 06:36:37;;;;;;;15.80;3.25;;;4.20;99.90;;;;;;4892490;29;20039;-76
2023/12/30 06:39:04;;;;;;;16.02;3.10;;;4.20;99.90;;;;;;4894594;29;20491;-77
2023/12/30 06:41:30;;;;;;;18.23;3.53;;;4.20;99.90;;;;;;4901681;29;20056;-77
2023/12/30 06:43:56;;;;;;;14.65;3.47;;;4.20;99.90;;;;;;4897724;29;20044;-76
2023/12/30 06:46:21;;;;;;;14.73;3.60;;;4.20;99.90;;;;;;4898529;29;20041;-77
2023/12/30 06:48:47;;;;;;;18.83;3.90;;;4.20;99.90;;;;;;4894434;29;20044;-77
2023/12/30 06:51:13;;;;;;;12.73;3.25;;;4.10;99.90;;;;;;4889629;29;20067;-77
2023/12/30 06:53:39;;;;;;;16.10;3.50;;;4.10;99.90;;;;;;4897827;29;20127;-77
2023/12/30 06:56:06;;;;;;;17.77;3.70;;;4.10;99.90;;;;;;4897471;29;20145;-76
2023/12/30 06:58:31;;;;;;;16.73;3.50;;;4.10;99.90;;;;;;4899662;29;20104;-77
2023/12/30 07:00:57;;;;;;;13.20;3.45;;;4.00;99.90;;;;;;4894956;29;20048;-76
2023/12/30 07:03:23;;;;;;;14.15;3.05;;;4.00;99.90;;;;;;4893613;29;20506;-77
2023/12/30 07:05:48;;;;;;;17.23;3.50;;;4.00;99.90;;;;;;4897395;29;20052;-77
2023/12/30 07:08:14;;;;;;;14.43;2.88;;;4.00;99.90;;;;;;4882801;29;20092;-77
2023/12/30 07:10:40;;;;;;;16.70;3.80;;;4.00;99.90;;;;;;4882579;29;20088;-77
2023/12/30 07:13:06;;;;;;;16.25;3.40;;;3.90;99.90;;;;;;4866632;29;20591;-77
2023/12/30 07:15:32;;;;;;;15.30;3.70;;;4.00;99.90;;;;;;4888477;29;20039;-76
2023/12/30 07:17:58;;;;;;;16.95;3.70;;;3.90;99.90;;;;;;4890111;29;20048;-76
2023/12/30 07:20:26;;;;;;;14.05;3.28;;;3.90;99.90;;;;;;4882118;29;20033;-77
2023/12/30 07:22:53;;;;;;;18.20;3.70;;;3.90;99.90;;;;;;4882471;29;20396;-76
2023/12/30 07:25:18;;;;;;;13.63;3.38;;;3.90;99.90;;;;;;4871905;29;20044;-77
2023/12/30 07:27:44;;;;;;;15.75;4.13;;;3.90;99.90;;;;;;4893304;29;20131;-77
2023/12/30 07:30:10;;;;;;;21.83;6.28;;;3.90;99.90;;;;;;4900816;29;20055;-76
2023/12/30 07:32:37;;;;;;;22.83;9.45;;;3.90;99.90;;;;;;4900813;29;20127;-75
2023/12/30 07:35:05;;;;;;;24.70;15.43;;;3.90;99.90;;;;;;4896621;29;20048;-77
2023/12/30 07:37:32;;;;;;;29.42;20.92;;;3.90;99.90;;;;;;4877366;29;20040;-77
2023/12/30 07:39:57;;;;;;;30.52;21.65;;;3.90;99.90;;;;;;4900478;29;20405;-77
2023/12/30 07:42:23;;;;;;;30.35;21.05;;;3.80;99.90;;;;;;4900527;29;20072;-77
2023/12/30 07:44:48;;;;;;;26.85;19.08;;;3.80;99.90;;;;;;4885806;29;20419;-77
2023/12/30 07:47:14;;;;;;;28.33;18.55;;;3.90;99.90;;;;;;4851188;29;20555;-77
2023/12/30 07:49:40;;;;;;;23.55;13.73;;;3.90;99.90;;;;;;4887956;29;20559;-77
2023/12/30 07:52:05;;;;;;;19.52;10.30;;;3.90;99.90;;;;;;4900490;29;20278;-77
2023/12/30 07:54:31;;;;;;;21.77;6.72;;;3.90;99.90;;;;;;4897659;29;20045;-77
2023/12/30 07:56:56;;;;;;;15.82;4.15;;;3.90;99.90;;;;;;4911312;29;20127;-76
2023/12/30 07:59:22;;;;;;;13.88;4.18;;;4.00;99.90;;;;;;4885834;29;20067;-77
2023/12/30 08:01:47;;;;;;;12.23;3.47;;;3.90;99.90;;;;;;4865458;29;20045;-77
2023/12/30 08:04:13;;;;;;;15.50;3.70;;;4.00;99.90;;;;;;4887878;29;20123;-77
2023/12/30 08:06:40;;;;;;;16.23;3.95;;;4.00;99.90;;;;;;4884299;29;20132;-77
2023/12/30 08:09:06;;;;;;;12.50;3.78;;;4.00;99.90;;;;;;4893166;29;20044;-77
2023/12/30 08:11:35;;;;;;;16.50;4.07;;;4.00;99.90;;;;;;4868109;29;20093;-77
2023/12/30 08:14:00;;;;;;;14.90;4.63;;;4.00;99.90;;;;;;4897089;29;20063;-76
2023/12/30 08:16:26;;;;;;;18.65;6.53;;;4.00;99.90;;;;;;4885525;29;20037;-79
2023/12/30 08:18:52;;;;;;;14.48;4.75;;;4.00;99.90;;;;;;4886436;29;20079;-79
2023/12/30 08:21:17;;;;;;;19.75;5.10;;;4.00;99.90;;;;;;4881239;29;20036;-76
2023/12/30 08:23:43;;;;;;;18.92;4.40;;;4.00;99.90;;;;;;4889211;29;20109;-76
2023/12/30 08:26:08;;;;;;;16.48;4.22;;;4.10;99.90;;;;;;4881382;29;20040;-79
2023/12/30 08:28:35;;;;;;;13.90;3.22;;;4.10;99.90;;;;;;4884637;29;20036;-77
2023/12/30 08:31:01;;;;;;;12.57;4.07;;;4.10;99.90;;;;;;4869545;29;20060;-76
2023/12/30 08:33:27;;;;;;;12.02;3.38;;;4.10;99.90;;;;;;4865049;29;20044;-76
2023/12/30 08:35:53;;;;;;;17.23;4.38;;;4.20;99.90;;;;;;4880872;29;20049;-77
2023/12/30 08:38:18;;;;;;;14.88;3.88;;;4.20;99.90;;;;;;4880777;29;20072;-77
2023/12/30 08:40:44;;;;;;;14.07;3.78;;;4.20;99.90;;;;;;4876508;29;20072;-77
2023/12/30 08:43:11;;;;;;;12.32;3.20;;;4.30;99.90;;;;;;4879517;29;20044;-76
2023/12/30 08:45:37;;;;;;;13.68;4.13;;;4.30;99.90;;;;;;4869598;29;20051;-78
2023/12/30 08:48:03;;;;;;;13.82;3.00;;;4.30;99.90;;;;;;4876805;29;20412;-77
2023/12/30 08:50:30;;;;;;;17.63;3.42;;;4.30;99.90;;;;;;4864794;29;20044;-77
2023/12/30 08:52:56;;;;;;;18.83;3.50;;;4.40;99.90;;;;;;4880499;29;20041;-77
2023/12/30 08:55:21;;;;;;;12.75;3.72;;;4.40;99.90;;;;;;4889058;29;20097;-77
2023/12/30 08:57:47;;;;;;;13.35;3.20;;;4.50;99.90;;;;;;4888764;29;20052;-76
2023/12/30 09:00:13;;;;;;;11.48;3.05;;;4.60;99.90;;;;;;4894968;29;20384;-77
2023/12/30 09:02:46;;;;;;;13.27;3.63;;;4.50;99.90;;;;;;4895442;29;20495;-77
2023/12/30 09:05:13;;;;;;;11.52;3.42;;;4.60;99.90;;;;;;4869487;29;20093;-77
2023/12/30 09:07:38;;;;;;;16.13;3.70;;;4.60;99.90;;;;;;4887364;29;20056;-77
2023/12/30 09:10:04;;;;;;;15.38;3.95;;;4.70;99.90;;;;;;4871704;29;20036;-77
2023/12/30 09:12:30;;;;;;;12.63;3.58;;;4.70;99.90;;;;;;4895161;29;20506;-77
2023/12/30 09:14:55;;;;;;;13.90;3.88;;;4.80;99.90;;;;;;4885152;29;20111;-77
2023/12/30 09:17:21;;;;;;;13.63;3.40;;;4.80;99.90;;;;;;4890082;29;20427;-77
2023/12/30 09:19:46;;;;;;;15.38;3.72;;;4.80;99.90;;;;;;4883359;29;20623;-76
2023/12/30 09:22:12;;;;;;;14.77;4.07;;;4.90;99.90;;;;;;4882316;29;20043;-77
2023/12/30 09:24:38;;;;;;;15.23;4.40;;;4.90;99.90;;;;;;4898447;29;20043;-77
2023/12/30 09:27:03;;;;;;;16.35;4.50;;;5.00;99.90;;;;;;4893137;29;20120;-79
2023/12/30 09:29:29;;;;;;;15.95;3.97;;;4.90;99.90;;;;;;4871900;29;20041;-76
2023/12/30 09:31:54;;;;;;;13.35;4.13;;;5.00;99.90;;;;;;4878889;29;20476;-77
2023/12/30 09:34:20;;;;;;;14.57;4.75;;;5.00;99.90;;;;;;4880771;29;20055;-76
2023/12/30 09:36:46;;;;;;;20.27;4.82;;;5.10;99.90;;;;;;4890953;29;20050;-76
2023/12/30 09:39:11;;;;;;;16.90;5.30;;;5.10;99.90;;;;;;4898818;29;20048;-76
2023/12/30 09:41:41;;;;;;;14.73;5.15;;;5.10;99.90;;;;;;4898626;29;20074;-76
2023/12/30 09:44:07;;;;;;;15.80;5.10;;;5.20;99.90;;;;;;4898673;29;20399;-77
2023/12/30 09:46:35;;;;;;;15.48;4.72;;;5.30;99.90;;;;;;4896195;29;20415;-76
2023/12/30 09:49:05;;;;;;;13.05;4.03;;;5.30;99.90;;;;;;4871344;29;20040;-76
2023/12/30 09:51:32;;;;;;;15.07;4.88;;;5.40;99.90;;;;;;4863423;29;20048;-77
2023/12/30 09:53:58;;;;;;;16.95;4.88;;;5.50;99.90;;;;;;4865873;29;20055;-76
2023/12/30 09:56:25;;;;;;;16.00;5.28;;;5.50;99.90;;;;;;4881622;29;20484;-77
2023/12/30 09:58:54;;;;;;;15.52;5.28;;;5.60;99.90;;;;;;4880788;29;20397;-78
2023/12/30 10:01:20;;;;;;;15.95;5.57;;;5.70;99.90;;;;;;4887103;29;20111;-76
2023/12/30 10:03:46;;;;;;;16.73;6.85;;;5.70;99.90;;;;;;4887252;29;20048;-76
2023/12/30 10:06:19;;;;;;;17.02;6.72;;;5.80;99.90;;;;;;4885315;29;20411;-78
2023/12/30 10:08:46;;;;;;;18.05;7.70;;;5.90;99.90;;;;;;4892043;29;20141;-77
2023/12/30 10:11:12;;;;;;;20.38;8.30;;;5.90;99.90;;;;;;4893525;29;20051;-77
2023/12/30 10:13:37;;;;;;;19.50;9.15;;;6.00;99.90;;;;;;4892630;29;20036;-79
2023/12/30 10:16:05;;;;;;;20.35;9.52;;;6.10;99.90;;;;;;4887812;29;20045;-77
2023/12/30 10:18:38;;;;;;;19.65;9.27;;;6.10;99.90;;;;;;4861066;29;20045;-78
2023/12/30 10:21:05;;;;;;;18.20;9.40;;;6.20;99.90;;;;;;4849212;29;20555;-78
2023/12/30 10:23:34;;;;;;;19.92;9.60;;;6.20;99.90;;;;;;4888634;29;20036;-77
2023/12/30 10:26:02;;;;;;;19.20;9.45;;;6.30;99.90;;;;;;4895544;29;20508;-76
2023/12/30 10:28:28;;;;;;;20.25;9.57;;;6.30;99.90;;;;;;4884879;29;20119;-77
2023/12/30 10:31:05;;;;;;;19.90;9.52;;;6.30;99.90;;;;;;4893684;29;20123;-76
2023/12/30 10:33:31;;;;;;;20.65;9.45;;;6.40;99.90;;;;;;4862734;29;20663;-76
2023/12/30 10:35:57;;;;;;;19.05;9.65;;;6.40;99.90;;;;;;4863933;29;20056;-77
2023/12/30 10:38:23;;;;;;;21.20;10.68;;;6.50;99.90;;;;;;4876693;29;20041;-78
2023/12/30 10:40:50;;;;;;;22.83;11.45;;;6.50;99.90;;;;;;4881601;29;20040;-78
2023/12/30 10:43:18;;;;;;;26.00;13.70;;;6.60;99.90;;;;;;4881670;29;20048;-78
2023/12/30 10:45:49;;;;;;;30.45;16.05;;;6.70;99.90;;;;;;4888953;29;20049;-78
2023/12/30 10:48:19;;;;;;;31.25;18.13;;;6.70;99.90;;;;;;4864574;29;20049;-78
2023/12/30 10:50:48;;;;;;;30.27;18.52;;;6.80;99.90;;;;;;4871433;29;20048;-78
2023/12/30 10:53:25;;;;;;;31.05;16.10;;;6.90;99.90;;;;;;4885061;29;20514;-77
2023/12/30 10:55:55;;;;;;;25.98;15.15;;;6.90;99.90;;;;;;4894596;29;20108;-77
2023/12/30 10:58:22;;;;;;;25.27;12.63;;;6.90;99.90;;;;;;4888647;29;20063;-76
2023/12/30 11:00:59;;;;;;;20.63;10.30;;;7.00;99.90;;;;;;4882990;29;20411;-77
2023/12/30 11:03:26;;;;;;;21.08;8.82;;;7.00;99.90;;;;;;4878024;29;20317;-77
2023/12/30 11:06:00;;;;;;;20.45;9.43;;;7.00;99.90;;;;;;4893187;29;20141;-76
2023/12/30 11:08:26;;;;;;;22.10;9.52;;;7.10;99.90;;;;;;4898435;29;20488;-77
2023/12/30 11:10:51;;;;;;;23.60;9.75;;;7.10;99.90;;;;;;4894495;29;21135;-77
2023/12/30 11:13:20;;;;;;;19.67;9.82;;;7.20;99.90;;;;;;4894464;29;20048;-76
2023/12/30 11:15:46;;;;;;;22.48;9.98;;;7.20;99.90;;;;;;4864041;29;20044;-76
2023/12/30 11:18:15;;;;;;;22.08;10.45;;;7.30;99.90;;;;;;4872861;29;20033;-76
2023/12/30 11:20:46;;;;;;;19.08;9.23;;;7.30;99.90;;;;;;4883747;29;20091;-76
2023/12/30 11:23:14;;;;;;;21.25;8.80;;;7.30;99.90;;;;;;4896232;29;20396;-76
2023/12/30 11:25:47;;;;;;;18.35;8.43;;;7.40;99.90;;;;;;4888243;29;20427;-76
2023/12/30 11:28:13;;;;;;;18.75;9.52;;;7.40;99.90;;;;;;4901087;29;20075;-76
2023/12/30 11:30:41;;;;;;;20.42;9.57;;;7.50;99.90;;;;;;4890199;29;20040;-75
2023/12/30 11:33:07;;;;;;;20.45;10.82;;;7.60;99.90;;;;;;4886791;29;20136;-76
2023/12/30 11:35:33;;;;;;;20.92;10.15;;;7.70;99.90;;;;;;4892605;29;20414;-76
2023/12/30 11:38:02;;;;;;;19.67;10.55;;;7.90;99.90;;;;;;4900814;29;20047;-76
2023/12/30 11:40:29;;;;;;;25.88;13.15;;;8.20;99.90;;;;;;4892896;29;20044;-76
2023/12/30 11:42:55;;;;;;;25.85;14.13;;;8.30;99.90;;;;;;4896013;29;20078;-76
2023/12/30 11:45:21;;;;;;;26.90;14.65;;;8.50;99.90;;;;;;4895230;29;20495;-76
2023/12/30 11:47:47;;;;;;;19.27;10.20;;;8.50;99.90;;;;;;4893620;29;20048;-80
2023/12/30 11:50:13;;;;;;;19.08;9.05;;;8.70;99.90;;;;;;4900595;29;20492;-79
2023/12/30 11:52:46;;;;;;;17.70;7.47;;;8.80;99.90;;;;;;4899414;29;20119;-76
2023/12/30 11:55:12;;;;;;;;;;;8.80;99.90;;;;;;4894448;29;20123;-76
2023/12/30 11:57:38;;;;;;;19.38;6.35;;;8.60;99.90;;;;;;4880381;29;19962;-77
2023/12/30 12:00:06;;;;;;;16.52;5.90;;;8.60;99.90;;;;;;4904349;29;20135;-77
2023/12/30 12:02:32;;;;;;;16.13;5.50;;;8.50;99.90;;;;;;4878491;29;20504;-77
2023/12/30 12:04:58;;;;;;;17.98;5.57;;;8.40;99.90;;;;;;4881637;29;20119;-77
2023/12/30 12:07:23;;;;;;;17.73;5.63;;;8.40;99.90;;;;;;4897167;29;20531;-80
2023/12/30 12:09:49;;;;;;;17.88;5.32;;;8.40;99.90;;;;;;4896726;29;20044;-78
2023/12/30 12:12:21;;;;;;;16.73;5.57;;;8.40;99.90;;;;;;4881064;29;20047;-77
2023/12/30 12:14:49;;;;;;;16.83;7.15;;;8.50;99.90;;;;;;4886267;29;20041;-78
2023/12/30 12:17:14;;;;;;;18.45;7.05;;;8.50;99.90;;;;;;4894608;29;20044;-78
2023/12/30 12:19:40;;;;;;;19.17;7.70;;;8.50;99.90;;;;;;4898137;29;20100;-78
2023/12/30 12:22:05;;;;;;;16.10;8.00;;;8.60;99.90;;;;;;4888392;29;20045;-77
2023/12/30 12:24:32;;;;;;;19.20;8.32;;;8.60;99.90;;;;;;4870600;29;20076;-77
2023/12/30 12:26:57;;;;;;;20.08;8.40;;;8.60;99.90;;;;;;4885104;29;20055;-78
2023/12/30 12:29:23;;;;;;;18.08;8.38;;;8.60;99.90;;;;;;4878600;29;20040;-78
2023/12/30 12:31:50;;;;;;;21.15;9.25;;;8.60;99.90;;;;;;4889437;29;20052;-78
2023/12/30 12:34:23;;;;;;;22.40;9.07;;;8.60;99.90;;;;;;4865218;29;20055;-79
2023/12/30 12:36:49;;;;;;;19.17;7.05;;;8.60;99.90;;;;;;4889687;29;20045;-77
2023/12/30 12:39:16;;;;;;;18.52;7.13;;;8.60;99.90;;;;;;4893438;29;20036;-77
2023/12/30 12:41:42;;;;;;;17.27;6.10;;;8.60;99.90;;;;;;4889750;29;20070;-80